Time;durP1;ratioP1;P1;durP2;ratioP2;P2;SDS_P1;SDS_P2;PMS_P1;PMS_P2;Temp;Humidity;BMP_temperature;BMP_pressure;BME280_temperature;BME280_humidity;BME280_pressure;Samples;Min_cycle;Max_cycle;Signal;HPM_P1;HPM_P2
2023/07/19 00:00:16;;;;;;;9.53;3.10;;;16.90;99.90;;;;;;5118864;27;20043;-72
2023/07/19 00:02:42;;;;;;;5.43;2.42;;;16.90;99.90;;;;;;5118641;27;20054;-72
2023/07/19 00:05:09;;;;;;;7.77;2.90;;;16.90;99.90;;;;;;5137236;27;20047;-72
2023/07/19 00:07:35;;;;;;;;;;;16.90;99.90;;;;;;5137305;27;20156;-73
2023/07/19 00:10:00;;;;;;;6.97;2.97;;;16.90;99.90;;;;;;5136854;27;20015;-72
2023/07/19 00:12:26;;;;;;;8.00;3.03;;;16.90;99.90;;;;;;5118698;27;20054;-71
2023/07/19 00:14:52;;;;;;;10.60;3.60;;;16.90;99.90;;;;;;5136642;27;20043;-71
2023/07/19 00:17:18;;;;;;;10.38;3.25;;;16.90;99.90;;;;;;5118617;27;20051;-71
2023/07/19 00:19:43;;;;;;;9.27;3.60;;;16.80;99.90;;;;;;5153212;27;20089;-72
2023/07/19 00:22:09;;;;;;;6.03;3.37;;;16.80;99.90;;;;;;5101608;27;20092;-71
2023/07/19 00:24:35;;;;;;;9.30;3.43;;;16.80;99.90;;;;;;5137463;27;20035;-71
2023/07/19 00:27:01;;;;;;;8.95;3.45;;;16.80;99.90;;;;;;5136471;27;20051;-71
2023/07/19 00:29:26;;;;;;;7.33;3.67;;;16.70;99.90;;;;;;5137019;27;20074;-71
2023/07/19 00:31:52;;;;;;;6.33;3.50;;;16.70;99.90;;;;;;5136282;27;20035;-73
2023/07/19 00:34:18;;;;;;;5.85;3.15;;;16.70;99.90;;;;;;5136253;27;20043;-72
2023/07/19 00:36:44;;;;;;;9.77;3.83;;;16.70;99.90;;;;;;5118072;27;20043;-72
2023/07/19 00:39:10;;;;;;;7.55;3.83;;;16.70;99.90;;;;;;5085030;27;20514;-71
2023/07/19 00:41:35;;;;;;;11.03;4.07;;;16.70;99.90;;;;;;5116595;27;20159;-72
2023/07/19 00:44:03;;;;;;;8.98;4.30;;;16.70;99.90;;;;;;5136690;27;20043;-72
2023/07/19 00:46:29;;;;;;;11.55;4.80;;;16.70;99.90;;;;;;5136142;27;20050;-71
2023/07/19 00:48:56;;;;;;;8.13;3.60;;;16.70;99.90;;;;;;5112201;28;20399;-72
2023/07/19 00:51:22;;;;;;;10.57;4.32;;;16.70;99.90;;;;;;5114278;28;20042;-72
2023/07/19 00:53:49;;;;;;;8.63;4.27;;;16.70;99.90;;;;;;5114088;28;20048;-72
2023/07/19 00:56:15;;;;;;;9.25;3.95;;;16.70;99.90;;;;;;5115795;28;20285;-72
2023/07/19 00:58:42;;;;;;;7.78;4.10;;;16.70;99.90;;;;;;5097352;28;20044;-72
2023/07/19 01:01:09;;;;;;;7.50;4.00;;;16.70;99.90;;;;;;5113816;28;20108;-72
2023/07/19 01:03:35;;;;;;;7.45;4.05;;;16.70;99.90;;;;;;5115913;27;20043;-75
2023/07/19 01:06:03;;;;;;;6.75;3.88;;;16.60;99.90;;;;;;5116762;28;20040;-73
2023/07/19 01:08:29;;;;;;;9.55;4.30;;;16.60;99.90;;;;;;5125428;28;20051;-73
2023/07/19 01:10:55;;;;;;;9.98;4.13;;;16.60;99.90;;;;;;5137930;28;20050;-72
2023/07/19 01:13:21;;;;;;;9.57;3.77;;;16.60;99.90;;;;;;5118040;28;20048;-73
2023/07/19 01:15:47;;;;;;;6.33;3.33;;;16.50;99.90;;;;;;5115788;28;20044;-72
2023/07/19 01:18:13;;;;;;;8.15;3.78;;;16.50;99.90;;;;;;5115312;28;20047;-72
2023/07/19 01:20:38;;;;;;;7.13;3.55;;;16.50;99.90;;;;;;5097787;28;20063;-72
2023/07/19 01:23:04;;;;;;;7.90;4.10;;;16.40;99.90;;;;;;5114740;28;20091;-73
2023/07/19 01:25:31;;;;;;;11.35;4.45;;;16.40;99.90;;;;;;5115393;28;20391;-72
2023/07/19 01:27:57;;;;;;;8.52;3.88;;;16.30;99.90;;;;;;5114600;28;20039;-73
2023/07/19 01:30:22;;;;;;;9.05;4.20;;;16.30;99.90;;;;;;5115006;28;20040;-72
2023/07/19 01:32:48;;;;;;;8.53;5.00;;;16.20;99.90;;;;;;5114640;28;20404;-72
2023/07/19 01:35:14;;;;;;;7.82;4.20;;;16.30;99.90;;;;;;5114085;28;20058;-72
2023/07/19 01:37:40;;;;;;;10.98;5.20;;;16.30;99.90;;;;;;5115216;28;20043;-71
2023/07/19 01:40:06;;;;;;;9.47;4.73;;;16.30;99.90;;;;;;5114908;28;20043;-73
2023/07/19 01:42:32;;;;;;;9.88;4.93;;;16.20;99.90;;;;;;5114836;28;20050;-73
2023/07/19 01:45:01;;;;;;;7.90;5.10;;;16.20;99.90;;;;;;5113576;28;20043;-72
2023/07/19 01:47:28;;;;;;;8.70;5.00;;;16.20;99.90;;;;;;5097773;27;20047;-72
2023/07/19 01:49:54;;;;;;;9.43;5.32;;;16.20;99.90;;;;;;5135132;27;20047;-73
2023/07/19 01:52:20;;;;;;;7.15;4.97;;;16.20;99.90;;;;;;5150823;27;20482;-74
2023/07/19 01:54:45;;;;;;;9.50;5.57;;;16.10;99.90;;;;;;5135284;27;20047;-73
2023/07/19 01:57:11;;;;;;;10.02;5.93;;;16.10;99.90;;;;;;5135374;27;20413;-72
2023/07/19 01:59:37;;;;;;;11.90;6.18;;;16.10;99.90;;;;;;5135252;27;20047;-73
2023/07/19 02:02:04;;;;;;;11.07;6.00;;;16.10;99.90;;;;;;5134544;27;20054;-73
2023/07/19 02:04:29;;;;;;;13.57;6.70;;;16.00;99.90;;;;;;5135679;27;20047;-73
2023/07/19 02:06:56;;;;;;;10.77;6.20;;;16.00;99.90;;;;;;5135164;27;20120;-73
2023/07/19 02:09:22;;;;;;;11.27;6.55;;;16.00;99.90;;;;;;5117655;28;20118;-73
2023/07/19 02:11:49;;;;;;;12.30;6.97;;;16.00;99.90;;;;;;5135704;27;20179;-72
2023/07/19 02:14:14;;;;;;;13.90;6.07;;;15.90;99.90;;;;;;5134778;27;20062;-72
2023/07/19 02:16:40;;;;;;;10.17;6.20;;;15.90;99.90;;;;;;5146231;27;20043;-72
2023/07/19 02:19:07;;;;;;;11.15;6.63;;;15.90;99.90;;;;;;5134291;27;20047;-72
2023/07/19 02:21:33;;;;;;;10.98;6.38;;;15.90;99.90;;;;;;5135682;27;20420;-72
2023/07/19 02:23:59;;;;;;;14.48;6.57;;;15.90;99.90;;;;;;5152120;27;20050;-73
2023/07/19 02:26:25;;;;;;;10.63;7.13;;;16.00;99.90;;;;;;5117650;28;20171;-72
2023/07/19 02:28:51;;;;;;;14.83;6.70;;;16.00;99.90;;;;;;5135841;28;20479;-73
2023/07/19 02:31:18;;;;;;;14.73;7.43;;;16.00;99.90;;;;;;5116399;28;20072;-73
2023/07/19 02:33:43;;;;;;;10.50;6.90;;;15.90;99.90;;;;;;5116165;28;20051;-72
2023/07/19 02:36:11;;;;;;;12.05;7.25;;;15.90;99.90;;;;;;5134805;28;20050;-71
2023/07/19 02:38:37;;;;;;;15.77;7.00;;;15.90;99.90;;;;;;5099753;28;20132;-72
2023/07/19 02:41:02;;;;;;;12.48;6.80;;;16.00;99.90;;;;;;5134643;28;20074;-72
2023/07/19 02:43:29;;;;;;;13.90;6.80;;;16.00;99.90;;;;;;5150815;27;20479;-72
2023/07/19 02:45:55;;;;;;;12.15;6.57;;;16.00;99.90;;;;;;5134704;28;20047;-73
2023/07/19 02:48:21;;;;;;;14.03;7.63;;;15.90;99.90;;;;;;5135072;28;20051;-73
2023/07/19 02:50:48;;;;;;;12.63;7.07;;;16.00;99.90;;;;;;5116618;28;20500;-72
2023/07/19 02:53:14;;;;;;;;;;;16.00;99.90;;;;;;5135435;28;20083;-72
2023/07/19 02:55:43;;;;;;;13.38;7.80;;;16.00;99.90;;;;;;5134581;28;19962;-73
2023/07/19 02:58:09;;;;;;;15.43;8.05;;;16.00;99.90;;;;;;5116063;28;20039;-73
2023/07/19 03:00:40;;;;;;;11.27;7.47;;;15.90;99.90;;;;;;5134524;28;20051;-72
2023/07/19 03:03:05;;;;;;;12.55;7.75;;;15.90;99.90;;;;;;5134529;28;20096;-72
2023/07/19 03:05:34;;;;;;;15.82;8.90;;;15.90;99.90;;;;;;5136946;27;20039;-72
2023/07/19 03:08:01;;;;;;;14.95;7.55;;;15.90;99.90;;;;;;5139354;27;20374;-72
2023/07/19 03:10:27;;;;;;;;;;;15.80;99.90;;;;;;5138813;27;20043;-73
2023/07/19 03:12:53;;;;;;;11.45;7.32;;;15.80;99.90;;;;;;5138864;27;20344;-73
2023/07/19 03:15:18;;;;;;;10.73;7.45;;;15.80;99.90;;;;;;5138349;27;20047;-72
2023/07/19 03:17:44;;;;;;;12.57;7.37;;;15.80;99.90;;;;;;5120602;27;20047;-73
2023/07/19 03:20:10;;;;;;;11.05;7.20;;;15.80;99.90;;;;;;5138181;27;20035;-74
2023/07/19 03:22:36;;;;;;;11.52;7.63;;;15.90;99.90;;;;;;5125009;27;20070;-71
2023/07/19 03:25:02;;;;;;;11.70;6.60;;;15.80;99.90;;;;;;5141991;27;20039;-73
2023/07/19 03:27:28;;;;;;;13.10;7.13;;;15.90;99.90;;;;;;5145015;27;20039;-73
2023/07/19 03:29:54;;;;;;;11.82;7.20;;;15.90;99.90;;;;;;5138383;27;20363;-73
2023/07/19 03:32:19;;;;;;;13.25;6.85;;;15.90;99.90;;;;;;5120255;27;20078;-73
2023/07/19 03:34:45;;;;;;;13.30;7.60;;;15.90;99.90;;;;;;5138233;27;20118;-72
2023/07/19 03:37:11;;;;;;;11.48;7.88;;;15.90;99.90;;;;;;5119576;27;20047;-73
2023/07/19 03:39:37;;;;;;;13.50;7.63;;;15.90;99.90;;;;;;5137822;27;20100;-71
2023/07/19 03:42:02;;;;;;;13.67;8.17;;;15.90;99.90;;;;;;5138156;27;20095;-70
2023/07/19 03:44:28;;;;;;;11.53;8.00;;;15.90;99.90;;;;;;5137662;27;20042;-70
2023/07/19 03:46:54;;;;;;;11.82;7.93;;;15.90;99.90;;;;;;5102239;27;20043;-69
2023/07/19 03:49:20;;;;;;;18.90;8.23;;;15.90;99.90;;;;;;5115418;28;20055;-68
2023/07/19 03:51:45;;;;;;;13.80;7.87;;;15.90;99.90;;;;;;5117493;28;20047;-68
2023/07/19 03:54:11;;;;;;;13.90;7.65;;;15.90;99.90;;;;;;5117388;28;20047;-70
2023/07/19 03:56:37;;;;;;;14.73;8.52;;;15.90;99.90;;;;;;5116250;28;20079;-69
2023/07/19 03:59:03;;;;;;;14.27;8.50;;;15.90;99.90;;;;;;5116341;28;20051;-69
2023/07/19 04:01:29;;;;;;;12.13;8.73;;;15.90;99.90;;;;;;5116850;28;20297;-68
2023/07/19 04:03:54;;;;;;;14.98;8.13;;;15.80;99.90;;;;;;5116656;28;20380;-69
2023/07/19 04:06:20;;;;;;;15.15;9.27;;;15.90;99.90;;;;;;5116973;28;20130;-70
2023/07/19 04:08:46;;;;;;;13.80;8.70;;;15.90;99.90;;;;;;5115498;28;20047;-69
2023/07/19 04:11:11;;;;;;;14.77;9.33;;;15.90;99.90;;;;;;5082050;28;20472;-70
2023/07/19 04:13:37;;;;;;;18.27;9.83;;;15.90;99.90;;;;;;5115981;28;20093;-70
2023/07/19 04:16:03;;;;;;;14.25;8.30;;;15.90;99.90;;;;;;5097980;28;20077;-70
2023/07/19 04:18:29;;;;;;;13.07;8.45;;;15.90;99.90;;;;;;5116198;28;20054;-69
2023/07/19 04:20:57;;;;;;;19.23;8.98;;;15.90;99.90;;;;;;5115309;28;20531;-70
2023/07/19 04:23:23;;;;;;;13.32;8.52;;;15.90;99.90;;;;;;5115315;28;20050;-71
2023/07/19 04:25:50;;;;;;;16.42;8.65;;;16.00;99.90;;;;;;5115382;28;20439;-70
2023/07/19 04:28:16;;;;;;;16.38;8.20;;;16.00;99.90;;;;;;5116286;28;20044;-72
2023/07/19 04:30:42;;;;;;;14.38;7.63;;;16.00;99.90;;;;;;5106888;28;20099;-69
2023/07/19 04:33:08;;;;;;;14.48;8.00;;;16.10;99.90;;;;;;5135276;28;20176;-70
2023/07/19 04:35:33;;;;;;;12.30;7.50;;;16.10;99.90;;;;;;5099864;28;20083;-70
2023/07/19 04:37:59;;;;;;;13.40;6.47;;;16.10;99.90;;;;;;5115365;28;20155;-69
2023/07/19 04:40:25;;;;;;;11.35;5.93;;;16.10;99.90;;;;;;5116346;28;20050;-69
2023/07/19 04:42:51;;;;;;;9.90;5.82;;;16.20;99.90;;;;;;5115827;27;20067;-69
2023/07/19 04:45:16;;;;;;;12.93;4.97;;;16.20;99.90;;;;;;5097669;28;20399;-69
2023/07/19 04:47:42;;;;;;;7.88;5.20;;;16.30;99.90;;;;;;5116769;27;20100;-69
2023/07/19 04:50:10;;;;;;;8.00;4.57;;;16.30;99.90;;;;;;5136633;27;20051;-68
2023/07/19 04:52:36;;;;;;;8.93;5.05;;;16.30;99.90;;;;;;5117975;27;20130;-67
2023/07/19 04:55:03;;;;;;;8.63;4.82;;;16.30;99.90;;;;;;5100851;27;20047;-68
2023/07/19 04:57:29;;;;;;;10.60;5.00;;;16.30;99.90;;;;;;5136043;27;20054;-68
2023/07/19 04:59:54;;;;;;;8.13;4.00;;;16.30;99.90;;;;;;5136036;27;20055;-69
2023/07/19 05:02:20;;;;;;;10.10;4.60;;;16.30;99.90;;;;;;5134888;27;20104;-69
2023/07/19 05:04:46;;;;;;;11.20;4.60;;;16.30;99.90;;;;;;5135869;27;20054;-69
2023/07/19 05:07:11;;;;;;;9.32;3.97;;;16.30;99.90;;;;;;5135856;27;20039;-68
2023/07/19 05:09:37;;;;;;;6.47;3.50;;;16.30;99.90;;;;;;5135998;27;20099;-68
2023/07/19 05:12:04;;;;;;;8.07;4.13;;;16.30;99.90;;;;;;5117238;27;20480;-69
2023/07/19 05:14:30;;;;;;;7.80;4.13;;;16.30;99.90;;;;;;5117275;27;20106;-69
2023/07/19 05:16:56;;;;;;;5.90;3.78;;;16.20;99.90;;;;;;5118400;27;20126;-69
2023/07/19 05:19:21;;;;;;;12.02;3.70;;;16.30;99.90;;;;;;5152312;27;20047;-76
2023/07/19 05:21:47;;;;;;;8.43;3.60;;;16.30;99.90;;;;;;5117814;27;20451;-69
2023/07/19 05:24:13;;;;;;;7.28;3.85;;;16.30;99.90;;;;;;5135573;27;20043;-69
2023/07/19 05:26:39;;;;;;;11.13;3.90;;;16.40;99.90;;;;;;5136166;27;20035;-68
2023/07/19 05:29:05;;;;;;;6.20;2.97;;;16.30;99.90;;;;;;5117546;27;20061;-68
2023/07/19 05:31:31;;;;;;;8.13;2.90;;;16.30;99.90;;;;;;5117048;27;20082;-69
2023/07/19 05:33:57;;;;;;;5.55;2.63;;;16.40;99.90;;;;;;5117686;27;20090;-68
2023/07/19 05:36:22;;;;;;;6.25;2.58;;;16.40;99.90;;;;;;5117930;27;20481;-68
2023/07/19 05:38:48;;;;;;;6.90;2.50;;;16.40;99.90;;;;;;5132260;27;20035;-68
2023/07/19 05:41:14;;;;;;;4.15;2.28;;;16.30;99.90;;;;;;5149435;27;20047;-68
2023/07/19 05:43:39;;;;;;;5.47;2.20;;;16.40;99.90;;;;;;5117724;27;20174;-69
2023/07/19 05:46:07;;;;;;;5.97;2.20;;;16.40;99.90;;;;;;5135811;27;20152;-68
2023/07/19 05:48:33;;;;;;;4.82;2.25;;;16.40;99.90;;;;;;5135128;27;20044;-69
2023/07/19 05:51:00;;;;;;;5.90;2.20;;;16.40;99.90;;;;;;5135361;27;20129;-68
2023/07/19 05:53:26;;;;;;;5.47;2.45;;;16.40;99.90;;;;;;5117005;27;20047;-75
2023/07/19 05:55:52;;;;;;;5.80;2.23;;;16.50;99.90;;;;;;5117670;27;20043;-68
2023/07/19 05:58:21;;;;;;;4.80;1.60;;;16.60;99.90;;;;;;5116734;27;20047;-69
2023/07/19 06:00:47;;;;;;;5.78;2.20;;;16.70;99.90;;;;;;5135012;27;20047;-68
2023/07/19 06:03:16;;;;;;;5.03;2.20;;;16.70;99.90;;;;;;5117323;27;20046;-68
2023/07/19 06:05:43;;;;;;;7.03;2.35;;;16.80;99.90;;;;;;5134931;27;20134;-68
2023/07/19 06:08:10;;;;;;;5.35;2.13;;;16.80;99.90;;;;;;5134916;27;20480;-69
2023/07/19 06:10:36;;;;;;;7.20;2.85;;;17.00;99.90;;;;;;5151604;27;20047;-70
2023/07/19 06:13:03;;;;;;;7.00;2.20;;;17.10;99.90;;;;;;5134872;27;20055;-68
2023/07/19 06:15:32;;;;;;;7.68;2.75;;;17.20;99.90;;;;;;5135747;27;20122;-77
2023/07/19 06:17:58;;;;;;;4.35;2.47;;;17.20;99.90;;;;;;5135043;27;20054;-69
2023/07/19 06:20:24;;;;;;;5.07;2.27;;;17.30;99.90;;;;;;5151224;27;20483;-69
2023/07/19 06:22:49;;;;;;;8.53;2.97;;;17.40;99.90;;;;;;5134489;27;20176;-68
2023/07/19 06:25:16;;;;;;;8.95;2.50;;;17.50;99.90;;;;;;5135196;28;20187;-73
2023/07/19 06:27:42;;;;;;;8.88;2.10;;;17.50;99.90;;;;;;5116539;28;20047;-70
2023/07/19 06:30:10;;;;;;;7.55;2.70;;;17.70;99.90;;;;;;5151178;27;20050;-69
2023/07/19 06:32:36;;;;;;;5.53;2.30;;;17.80;99.90;;;;;;5134478;28;20047;-70
2023/07/19 06:35:05;;;;;;;6.97;2.47;;;18.00;99.90;;;;;;5116556;28;20140;-69
2023/07/19 06:37:34;;;;;;;6.18;2.00;;;18.00;99.90;;;;;;5116006;28;20043;-70
2023/07/19 06:40:03;;;;;;;8.18;1.98;;;18.20;99.90;;;;;;5138335;27;20066;-71
2023/07/19 06:42:30;;;;;;;5.20;2.10;;;18.30;99.90;;;;;;5155305;27;20119;-70
2023/07/19 06:44:56;;;;;;;5.35;1.98;;;18.40;99.90;;;;;;5142814;27;20050;-70
2023/07/19 06:47:22;;;;;;;7.67;2.03;;;18.50;99.90;;;;;;5144605;27;20047;-71
2023/07/19 06:49:47;;;;;;;5.43;1.97;;;18.50;99.90;;;;;;5145062;27;20051;-70
2023/07/19 06:52:13;;;;;;;7.57;1.90;;;18.50;99.90;;;;;;5121270;27;20050;-70
2023/07/19 06:54:39;;;;;;;6.23;1.60;;;18.50;99.90;;;;;;5138352;27;20130;-71
2023/07/19 06:57:05;;;;;;;4.73;1.67;;;18.20;99.90;;;;;;5138533;27;20050;-72
2023/07/19 06:59:31;;;;;;;4.40;1.60;;;18.20;99.90;;;;;;5120443;27;20043;-70
2023/07/19 07:01:57;;;;;;;4.00;1.40;;;18.10;99.90;;;;;;5119959;27;20398;-71
2023/07/19 07:04:24;;;;;;;3.65;1.40;;;18.20;99.90;;;;;;5154631;27;20051;-70
2023/07/19 07:06:50;;;;;;;8.30;1.42;;;18.30;99.90;;;;;;5120428;27;20054;-69
2023/07/19 07:09:16;;;;;;;5.27;1.40;;;18.40;99.90;;;;;;5120117;27;20474;-71
2023/07/19 07:11:41;;;;;;;4.20;1.30;;;18.60;99.90;;;;;;5138350;27;20400;-70
2023/07/19 07:14:08;;;;;;;7.07;1.83;;;18.60;99.90;;;;;;5137022;27;20285;-70
2023/07/19 07:16:34;;;;;;;6.45;1.38;;;18.70;99.90;;;;;;5120141;27;20130;-71
2023/07/19 07:19:00;;;;;;;7.13;1.27;;;18.80;99.90;;;;;;5138075;27;20079;-70
2023/07/19 07:21:26;;;;;;;5.87;1.37;;;18.90;99.90;;;;;;5137028;27;20085;-70
2023/07/19 07:23:52;;;;;;;4.67;1.07;;;19.00;99.90;;;;;;5138005;27;20055;-70
2023/07/19 07:26:17;;;;;;;4.90;1.20;;;19.00;99.90;;;;;;5103651;27;20443;-70
2023/07/19 07:28:44;;;;;;;3.03;0.87;;;19.10;99.90;;;;;;5103654;27;20134;-72
2023/07/19 07:31:09;;;;;;;4.72;1.02;;;19.10;99.90;;;;;;5138735;27;20099;-71
2023/07/19 07:33:35;;;;;;;5.13;1.00;;;19.20;99.90;;;;;;5119556;27;20494;-71
2023/07/19 07:36:01;;;;;;;4.43;1.00;;;19.20;99.90;;;;;;5119946;27;20069;-72
2023/07/19 07:38:27;;;;;;;4.63;0.90;;;19.30;99.90;;;;;;5137844;27;20391;-71
2023/07/19 07:41:06;;;;;;;4.40;0.87;;;19.40;99.90;;;;;;5137731;27;20035;-72
2023/07/19 07:43:32;;;;;;;2.75;0.80;;;19.40;99.90;;;;;;5120047;27;20044;-72
2023/07/19 07:45:58;;;;;;;4.00;0.90;;;19.50;99.90;;;;;;5119066;27;20086;-72
2023/07/19 07:48:25;;;;;;;3.10;0.83;;;19.60;99.90;;;;;;5118949;27;20090;-72
2023/07/19 07:50:51;;;;;;;2.85;0.73;;;19.60;99.90;;;;;;5119134;27;20493;-72
2023/07/19 07:53:21;;;;;;;;;;;19.70;99.90;;;;;;5114593;27;20035;-72
2023/07/19 07:55:50;;;;;;;7.80;1.00;;;19.60;99.90;;;;;;5123449;27;19927;-73
2023/07/19 07:58:17;;;;;;;5.05;0.95;;;19.50;99.90;;;;;;5138495;27;20039;-72
2023/07/19 08:00:44;;;;;;;3.70;0.85;;;19.60;99.90;;;;;;5138439;27;20428;-71
2023/07/19 08:03:10;;;;;;;3.88;0.90;;;19.60;99.90;;;;;;5138065;27;20047;-72
2023/07/19 08:05:37;;;;;;;3.50;0.70;;;19.60;99.90;;;;;;5102507;27;20494;-72
2023/07/19 08:08:05;;;;;;;3.95;0.75;;;19.60;99.90;;;;;;5102326;27;20046;-71
2023/07/19 08:10:40;;;;;;;6.38;0.80;;;19.60;99.90;;;;;;5118696;27;20445;-70
2023/07/19 08:13:07;;;;;;;3.78;0.80;;;19.60;99.90;;;;;;5118810;27;20043;-72
2023/07/19 08:15:33;;;;;;;3.30;0.85;;;19.70;99.90;;;;;;5137319;27;20452;-72
2023/07/19 08:17:59;;;;;;;3.53;0.80;;;19.70;99.90;;;;;;5137107;27;20091;-72
2023/07/19 08:20:25;;;;;;;5.10;1.03;;;19.80;99.90;;;;;;5119753;27;20459;-72
2023/07/19 08:22:51;;;;;;;;;;;19.90;99.90;;;;;;5137465;27;20501;-72
2023/07/19 08:25:19;;;;;;;3.33;0.67;;;19.90;99.90;;;;;;5102810;27;20017;-72
2023/07/19 08:27:44;;;;;;;2.95;0.60;;;20.00;99.90;;;;;;5137720;27;20082;-71
2023/07/19 08:30:20;;;;;;;3.47;0.70;;;20.00;99.90;;;;;;5137432;27;20470;-72
2023/07/19 08:32:47;;;;;;;4.18;0.60;;;19.90;99.90;;;;;;5120965;27;20050;-72
2023/07/19 08:35:14;;;;;;;4.50;0.80;;;20.10;99.90;;;;;;5118670;27;20435;-72
2023/07/19 08:37:40;;;;;;;;;;;20.10;99.90;;;;;;5137165;27;20082;-70
2023/07/19 08:40:07;;;;;;;3.22;0.63;;;20.20;99.90;;;;;;5136939;27;19919;-72
2023/07/19 08:42:33;;;;;;;;;;;20.30;99.90;;;;;;5136998;27;20372;-71
2023/07/19 08:44:59;;;;;;;7.85;0.93;;;20.40;99.90;;;;;;5152779;27;19943;-72
2023/07/19 08:47:25;;;;;;;4.63;0.80;;;20.60;99.90;;;;;;5101798;27;20471;-72
2023/07/19 08:49:51;;;;;;;5.83;0.80;;;20.50;99.90;;;;;;5118070;27;20080;-72
2023/07/19 08:52:17;;;;;;;5.70;0.75;;;20.80;99.90;;;;;;5118244;27;20051;-71
2023/07/19 08:54:43;;;;;;;4.47;0.70;;;21.10;99.90;;;;;;5137363;27;20055;-72
2023/07/19 08:57:09;;;;;;;5.67;0.80;;;21.40;99.90;;;;;;5136409;27;20058;-72
2023/07/19 08:59:35;;;;;;;4.50;0.60;;;21.50;99.90;;;;;;5138519;27;20051;-72
2023/07/19 09:02:02;;;;;;;6.80;0.90;;;21.60;99.90;;;;;;5113309;28;20103;-71
2023/07/19 09:04:27;;;;;;;;;;;21.60;99.90;;;;;;5138182;27;20146;-71
2023/07/19 09:06:53;;;;;;;4.83;0.80;;;21.40;99.90;;;;;;5103727;27;19943;-70
2023/07/19 09:09:19;;;;;;;3.40;0.80;;;21.20;99.90;;;;;;5118732;27;20276;-73
2023/07/19 09:11:50;;;;;;;4.20;0.80;;;21.30;99.90;;;;;;5117917;27;20047;-70
2023/07/19 09:14:15;;;;;;;7.63;1.00;;;21.40;99.90;;;;;;5136696;27;20121;-72
2023/07/19 09:16:41;;;;;;;5.10;0.77;;;21.40;99.90;;;;;;5152328;27;20089;-71
2023/07/19 09:19:08;;;;;;;3.80;0.90;;;21.20;99.90;;;;;;5101094;27;20047;-71
2023/07/19 09:21:38;;;;;;;5.60;1.08;;;21.30;99.90;;;;;;5136575;27;20051;-71
2023/07/19 09:24:06;;;;;;;8.93;1.02;;;21.10;99.90;;;;;;5135994;27;20486;-71
2023/07/19 09:26:53;;;;;;;6.45;0.90;;;21.20;99.90;;;;;;5118545;27;20091;-69
2023/07/19 09:29:20;;;;;;;5.22;1.20;;;21.20;99.90;;;;;;5136289;27;20047;-70
2023/07/19 09:32:04;;;;;;;;;;;21.30;99.90;;;;;;5136256;27;20406;-71
2023/07/19 09:34:38;;;;;;;5.47;1.23;;;21.30;99.90;;;;;;5136065;27;19919;-70
2023/07/19 09:37:05;;;;;;;4.60;1.00;;;21.40;99.90;;;;;;5118164;27;20047;-70
2023/07/19 09:39:34;;;;;;;5.53;1.10;;;21.40;99.90;;;;;;5117205;27;20088;-71
2023/07/19 09:42:01;;;;;;;7.82;1.00;;;21.50;99.90;;;;;;5100091;27;20378;-71
2023/07/19 09:44:27;;;;;;;5.78;0.77;;;21.60;99.90;;;;;;5135245;27;20047;-70
2023/07/19 09:46:57;;;;;;;4.18;1.17;;;21.80;99.90;;;;;;5116737;27;20046;-71
2023/07/19 09:49:23;;;;;;;5.18;1.13;;;21.80;99.90;;;;;;5116862;27;20047;-71
2023/07/19 09:51:50;;;;;;;5.85;0.90;;;21.80;99.90;;;;;;5136007;27;20051;-70
2023/07/19 09:54:16;;;;;;;4.35;1.10;;;21.80;99.90;;;;;;5118059;27;20125;-69
2023/07/19 09:56:43;;;;;;;7.07;1.20;;;22.00;99.90;;;;;;5117322;27;20483;-72
2023/07/19 09:59:13;;;;;;;4.57;1.13;;;22.10;99.90;;;;;;5135324;27;20107;-72
2023/07/19 10:01:39;;;;;;;4.18;1.08;;;22.10;99.90;;;;;;5099817;27;20063;-70
2023/07/19 10:04:27;;;;;;;5.40;1.08;;;22.20;99.90;;;;;;5116997;27;20097;-72
2023/07/19 10:07:10;;;;;;;6.07;0.88;;;22.60;99.90;;;;;;5126400;27;20051;-71
2023/07/19 10:09:40;;;;;;;4.72;1.20;;;22.90;99.90;;;;;;5152158;27;20368;-70
2023/07/19 10:12:25;;;;;;;4.90;1.00;;;23.20;99.90;;;;;;5116904;27;20172;-71
2023/07/19 10:14:58;;;;;;;4.50;0.95;;;23.00;99.90;;;;;;5135332;27;20076;-69
2023/07/19 10:17:24;;;;;;;6.75;0.75;;;22.50;99.90;;;;;;5116727;27;20062;-71
2023/07/19 10:20:14;;;;;;;4.45;0.40;;;22.50;99.90;;;;;;5116359;27;20510;-72
2023/07/19 10:22:49;;;;;;;6.32;0.70;;;22.70;99.90;;;;;;5134788;27;20538;-71
2023/07/19 10:25:22;;;;;;;3.85;0.60;;;22.70;99.90;;;;;;5134873;27;20130;-71
2023/07/19 10:28:24;;;;;;;4.85;0.60;;;22.70;99.90;;;;;;5134790;28;20039;-70
2023/07/19 10:31:01;;;;;;;3.30;0.50;;;22.60;99.90;;;;;;5116683;28;20054;-71
2023/07/19 10:33:29;;;;;;;5.80;0.60;;;22.50;99.90;;;;;;5134898;28;20101;-72
2023/07/19 10:35:58;;;;;;;4.82;0.70;;;22.50;99.90;;;;;;5100563;28;20127;-69
2023/07/19 10:38:26;;;;;;;8.70;0.70;;;22.60;99.90;;;;;;5116360;28;20094;-69
2023/07/19 10:40:56;;;;;;;4.82;0.60;;;22.60;99.90;;;;;;5116821;28;20043;-70
2023/07/19 10:43:23;;;;;;;5.88;0.65;;;23.00;99.90;;;;;;5134847;28;20376;-70
2023/07/19 10:45:49;;;;;;;5.65;0.88;;;23.10;99.90;;;;;;5116972;28;20118;-71
2023/07/19 10:48:15;;;;;;;3.70;0.60;;;23.10;99.90;;;;;;5136683;28;20176;-70
2023/07/19 10:50:43;;;;;;;2.80;0.57;;;23.30;99.90;;;;;;5119825;28;20058;-69
2023/07/19 10:53:09;;;;;;;3.55;0.40;;;23.20;99.90;;;;;;5117950;28;20050;-69
2023/07/19 10:55:35;;;;;;;3.70;0.50;;;23.30;99.90;;;;;;5137206;28;20475;-71
2023/07/19 10:58:01;;;;;;;2.93;0.40;;;23.30;99.90;;;;;;5118709;28;20047;-71
2023/07/19 11:00:27;;;;;;;1.75;0.40;;;23.30;99.90;;;;;;5135145;28;20099;-71
2023/07/19 11:02:56;;;;;;;2.70;0.57;;;23.20;99.90;;;;;;5118426;28;20057;-70
2023/07/19 11:05:21;;;;;;;3.80;0.50;;;23.10;99.90;;;;;;5135460;28;20039;-71
2023/07/19 11:07:49;;;;;;;2.97;0.50;;;23.20;99.90;;;;;;5119541;28;20047;-69
2023/07/19 11:10:15;;;;;;;6.55;0.63;;;23.20;99.90;;;;;;5118105;28;20069;-71
2023/07/19 11:12:41;;;;;;;2.67;0.40;;;23.10;99.90;;;;;;5107314;28;20043;-71
2023/07/19 11:15:08;;;;;;;4.50;0.50;;;22.90;99.90;;;;;;5126439;28;20285;-71
2023/07/19 11:17:37;;;;;;;7.00;0.63;;;23.00;99.90;;;;;;5137342;28;20395;-71
2023/07/19 11:20:03;;;;;;;2.70;0.60;;;23.00;99.90;;;;;;5134552;28;20174;-71
2023/07/19 11:22:29;;;;;;;;;;;23.00;99.90;;;;;;5082625;28;20043;-72
2023/07/19 11:24:55;;;;;;;3.65;0.60;;;22.70;99.90;;;;;;5116196;27;19919;-72
2023/07/19 11:27:34;;;;;;;3.10;0.60;;;22.70;99.90;;;;;;5119270;27;20086;-72
2023/07/19 11:30:00;;;;;;;2.55;0.60;;;22.70;99.90;;;;;;5139004;27;20151;-71
2023/07/19 11:32:25;;;;;;;7.93;0.83;;;23.00;99.90;;;;;;5138214;27;20122;-71
2023/07/19 11:34:54;;;;;;;3.50;0.90;;;22.90;99.90;;;;;;5154585;27;20503;-73
2023/07/19 11:37:40;;;;;;;5.78;0.90;;;22.80;99.90;;;;;;5103650;27;20055;-72
2023/07/19 11:40:06;;;;;;;3.40;0.65;;;22.80;99.90;;;;;;5120206;27;20046;-70
2023/07/19 11:42:47;;;;;;;2.90;0.60;;;22.60;99.90;;;;;;5103336;27;20047;-72
2023/07/19 11:45:14;;;;;;;4.60;0.80;;;22.70;99.90;;;;;;5119453;27;20043;-72
2023/07/19 11:47:41;;;;;;;3.45;0.50;;;22.90;99.90;;;;;;5137540;27;20045;-71
2023/07/19 11:50:08;;;;;;;2.58;0.60;;;23.00;99.90;;;;;;5138025;27;20055;-71
2023/07/19 11:53:01;;;;;;;3.83;0.80;;;23.00;99.90;;;;;;5085560;27;20419;-71
2023/07/19 11:55:29;;;;;;;3.90;0.70;;;23.00;99.90;;;;;;5133967;27;20142;-72
2023/07/19 11:58:02;;;;;;;2.20;0.65;;;23.10;99.90;;;;;;5137624;27;20043;-70
2023/07/19 12:00:30;;;;;;;3.28;0.70;;;23.10;99.90;;;;;;5120046;27;20047;-71
2023/07/19 12:02:56;;;;;;;4.43;0.60;;;23.20;99.90;;;;;;5137363;27;20043;-71
2023/07/19 12:05:23;;;;;;;3.33;0.60;;;23.10;99.90;;;;;;5153635;27;20059;-72
2023/07/19 12:07:51;;;;;;;3.63;0.90;;;23.00;99.90;;;;;;5137407;27;20061;-70
2023/07/19 12:10:18;;;;;;;3.38;1.00;;;22.60;99.90;;;;;;5137210;27;20045;-71
2023/07/19 12:12:46;;;;;;;6.43;1.42;;;22.50;99.90;;;;;;5132208;27;20054;-71
2023/07/19 12:15:13;;;;;;;3.95;1.35;;;22.10;99.90;;;;;;5137714;27;20059;-71
2023/07/19 12:17:39;;;;;;;5.40;1.23;;;22.00;99.90;;;;;;5137580;27;20075;-71
2023/07/19 12:20:07;;;;;;;4.38;0.85;;;22.10;99.90;;;;;;5137376;27;20111;-72
2023/07/19 12:22:34;;;;;;;5.25;1.00;;;22.30;99.90;;;;;;5137124;27;20051;-72
2023/07/19 12:25:00;;;;;;;2.45;0.70;;;22.40;99.90;;;;;;5137028;27;20054;-71
2023/07/19 12:27:26;;;;;;;2.42;0.70;;;22.70;99.90;;;;;;5119247;27;20039;-72
2023/07/19 12:29:52;;;;;;;4.83;1.40;;;23.00;99.90;;;;;;5136422;27;20043;-71
2023/07/19 12:32:18;;;;;;;3.53;0.75;;;22.90;99.90;;;;;;5119388;27;20047;-73
2023/07/19 12:34:47;;;;;;;4.18;1.05;;;23.00;99.90;;;;;;5118867;27;20134;-73
2023/07/19 12:37:13;;;;;;;6.45;1.10;;;23.20;99.90;;;;;;5118448;27;20130;-72
2023/07/19 12:39:40;;;;;;;4.43;0.90;;;23.50;99.90;;;;;;5118334;27;20137;-71
2023/07/19 12:42:06;;;;;;;4.47;1.08;;;23.30;99.90;;;;;;5101772;27;20047;-72
2023/07/19 12:44:33;;;;;;;7.47;1.10;;;23.30;99.90;;;;;;5136581;27;20091;-72
2023/07/19 12:46:58;;;;;;;;;;;23.10;99.90;;;;;;5119558;27;20051;-71